Time;durP1;ratioP1;P1;durP2;ratioP2;P2;SDS_P1;SDS_P2;PMS_P1;PMS_P2;Temp;Humidity;BMP_temperature;BMP_pressure;BME280_temperature;BME280_humidity;BME280_pressure;Samples;Min_cycle;Max_cycle;Signal;HPM_P1;HPM_P2
2022/07/21 00:01:43;;;;;;;;;;;;;;;;;;4895947;29;19925;-59
2022/07/21 00:04:08;;;;;;;;;;;;;;;;;;4896067;29;20669;-60
2022/07/21 00:06:36;;;;;;;;;;;;;;;;;;4895120;29;20402;-60
2022/07/21 00:09:02;;;;;;;;;;;;;;;;;;4877288;29;19919;-59
2022/07/21 00:11:27;;;;;;;;;;;;;;;;;;4897012;29;20797;-58
2022/07/21 00:13:55;;;;;;;;;;;;;;;;;;4894930;29;21011;-60
2022/07/21 00:16:22;;;;;;;;;;;;;;;;;;4896691;29;20283;-59
2022/07/21 00:18:47;;;;;;;;;;;;;;;;;;4895199;29;19935;-59
2022/07/21 00:21:16;;;;;;;;;;;;;;;;;;4895183;29;20318;-60
2022/07/21 00:23:41;;;;;;;;;;;;;;;;;;4896206;29;19919;-60
2022/07/21 00:26:09;;;;;;;;;;;;;;;;;;4895688;29;19930;-59
2022/07/21 00:28:40;;;;;;;;;;;;;;;;;;4898740;29;19949;-60
2022/07/21 00:31:08;;;;;;;;;;;;;;;;;;4895100;29;19967;-59
2022/07/21 00:33:33;;;;;;;;;;;;;;;;;;4899840;29;19927;-59
2022/07/21 00:35:58;;;;;;;;;;;;;;;;;;4894104;29;19930;-60
2022/07/21 00:38:24;;;;;;;;;;;;;;;;;;4893792;29;20298;-59
2022/07/21 00:40:53;;;;;;;;;;;;;;;;;;4894006;29;19919;-60
2022/07/21 00:43:18;;;;;;;;;;;;;;;;;;4899605;29;19934;-58
2022/07/21 00:45:46;;;;;;;;;;;;;;;;;;4901272;29;19919;-57
2022/07/21 00:48:15;;;;;;;;;;;;;;;;;;4900224;29;19923;-59
2022/07/21 00:50:41;;;;;;;;;;;;;;;;;;4897553;29;19966;-59
2022/07/21 00:53:06;;;;;;;;;;;;;;;;;;4898262;29;20009;-60
2022/07/21 00:55:33;;;;;;;;;;;;;;;;;;4898274;29;19923;-59
2022/07/21 00:57:58;;;;;;;;;;;;;;;;;;4899198;29;20014;-60
2022/07/21 01:00:29;;;;;;;;;;;;;;;;;;4900414;29;19923;-59
2022/07/21 01:02:54;;;;;;;;;;;;;;;;;;4900752;29;19923;-59
2022/07/21 01:05:21;;;;;;;;;;;;;;;;;;4900744;29;19927;-64
2022/07/21 01:07:52;;;;;;;;;;;;;;;;;;4900520;29;19922;-55
2022/07/21 01:10:17;;;;;;;;;;;;;;;;;;4901428;29;19923;-57
2022/07/21 01:12:45;;;;;;;;;;;;;;;;;;4896036;29;19938;-59
2022/07/21 01:15:12;;;;;;;;;;;;;;;;;;4900268;29;19978;-58
2022/07/21 01:17:38;;;;;;;;;;;;;;;;;;4899368;29;20018;-57
2022/07/21 01:20:03;;;;;;;;;;;;;;;;;;4900773;29;20564;-58
2022/07/21 01:22:28;;;;;;;;;;;;;;;;;;4901342;29;19919;-59
2022/07/21 01:24:56;;;;;;;;;;;;;;;;;;4902401;29;19923;-57
2022/07/21 01:27:21;;;;;;;;;;;;;;;;;;4896774;29;19923;-57
2022/07/21 01:29:50;;;;;;;;;;;;;;;;;;4900460;29;20295;-58
2022/07/21 01:32:17;;;;;;;;;;;;;;;;;;4902156;29;19943;-59
2022/07/21 01:34:44;;;;;;;;;;;;;;;;;;4900616;29;20030;-58
2022/07/21 01:37:09;;;;;;;;;;;;;;;;;;4896128;29;20485;-57
2022/07/21 01:42:18;;;;;;;;;;;;;;;;;;4900020;29;19923;-58
2022/07/21 01:44:43;;;;;;;;;;;;;;;;;;4899636;29;19930;-58
2022/07/21 01:47:09;;;;;;;;;;;;;;;;;;4897589;29;19927;-59
2022/07/21 01:49:34;;;;;;;;;;;;;;;;;;4902202;29;19930;-60
2022/07/21 01:52:01;;;;;;;;;;;;;;;;;;4899360;29;20042;-59
2022/07/21 01:54:32;;;;;;;;;;;;;;;;;;4895152;29;19923;-59
2022/07/21 01:56:57;;;;;;;;;;;;;;;;;;4898058;29;20845;-60
2022/07/21 01:59:23;;;;;;;;;;;;;;;;;;4897099;29;20017;-61
2022/07/21 02:01:48;;;;;;;;;;;;;;;;;;4898561;29;19923;-61
2022/07/21 02:04:13;;;;;;;;;;;;;;;;;;4894364;29;19923;-61
2022/07/21 02:06:41;;;;;;;;;;;;;;;;;;4898069;29;19935;-61
2022/07/21 02:09:08;;;;;;;;;;;;;;;;;;4895405;29;19959;-61
2022/07/21 02:11:34;;;;;;;;;;;;;;;;;;4897204;29;21916;-60
2022/07/21 02:13:59;;;;;;;;;;;;;;;;;;4895099;29;19922;-61
2022/07/21 02:16:27;;;;;;;;;;;;;;;;;;4898109;29;19929;-59
2022/07/21 02:18:53;;;;;;;;;;;;;;;;;;4898411;29;19987;-59
2022/07/21 02:21:18;;;;;;;;;;;;;;;;;;4897893;29;19919;-60
2022/07/21 02:23:47;;;;;;;;;;;;;;;;;;4902304;29;19923;-61
2022/07/21 02:26:12;;;;;;;;;;;;;;;;;;4896197;29;19933;-63
2022/07/21 02:28:37;;;;;;;;;;;;;;;;;;4900227;29;19927;-64
2022/07/21 02:31:05;;;;;;;;;;;;;;;;;;4881790;29;19919;-61
2022/07/21 02:33:31;;;;;;;;;;;;;;;;;;4899757;29;19933;-62
2022/07/21 02:35:58;;;;;;;;;;;;;;;;;;4901109;29;19919;-63
2022/07/21 02:38:26;;;;;;;;;;;;;;;;;;4896816;29;19946;-60
2022/07/21 02:40:52;;;;;;;;;;;;;;;;;;4899660;29;20272;-60
2022/07/21 02:43:17;;;;;;;;;;;;;;;;;;4901214;29;20001;-61
2022/07/21 02:45:45;;;;;;;;;;;;;;;;;;4899016;29;19929;-61
2022/07/21 02:48:11;;;;;;;;;;;;;;;;;;4899552;29;20009;-62
2022/07/21 02:50:37;;;;;;;;;;;;;;;;;;4898689;29;19919;-62
2022/07/21 02:53:02;;;;;;;;;;;;;;;;;;4873372;29;20567;-62
2022/07/21 02:55:30;;;;;;;;;;;;;;;;;;4895291;29;19965;-62
2022/07/21 02:57:59;;;;;;;;;;;;;;;;;;4898633;29;19919;-61
2022/07/21 03:00:24;;;;;;;;;;;;;;;;;;4896994;29;20346;-61
2022/07/21 03:02:50;;;;;;;;;;;;;;;;;;4896764;29;20014;-61
2022/07/21 03:05:18;;;;;;;;;;;;;;;;;;4899123;29;19938;-61
2022/07/21 03:07:44;;;;;;;;;;;;;;;;;;4898129;29;19926;-61
2022/07/21 03:10:10;;;;;;;;;;;;;;;;;;4895125;29;19927;-61
2022/07/21 03:12:37;;;;;;;;;;;;;;;;;;4898627;29;19927;-61
2022/07/21 03:15:05;;;;;;;;;;;;;;;;;;4881903;29;19919;-59
2022/07/21 03:17:31;;;;;;;;;;;;;;;;;;4898490;29;19926;-60
2022/07/21 03:19:56;;;;;;;;;;;;;;;;;;4884940;29;19973;-60
2022/07/21 03:22:24;;;;;;;;;;;;;;;;;;4899588;29;19918;-61
2022/07/21 03:24:54;;;;;;;;;;;;;;;;;;4897940;29;19919;-60
2022/07/21 03:27:19;;;;;;;;;;;;;;;;;;4895666;29;20655;-59
2022/07/21 03:29:44;;;;;;;;;;;;;;;;;;4896935;29;20008;-60
2022/07/21 03:32:09;;;;;;;;;;;;;;;;;;4873652;29;22046;-60
2022/07/21 03:34:35;;;;;;;;;;;;;;;;;;4896238;29;19919;-60
2022/07/21 03:37:02;;;;;;;;;;;;;;;;;;4896939;29;19954;-60
2022/07/21 03:39:32;;;;;;;;;;;;;;;;;;4896870;29;19919;-60
2022/07/21 03:42:00;;;;;;;;;;;;;;;;;;4898283;29;20521;-61
2022/07/21 03:44:25;;;;;;;;;;;;;;;;;;4897658;29;19973;-60
2022/07/21 03:46:53;;;;;;;;;;;;;;;;;;4894915;29;19923;-61
2022/07/21 03:49:18;;;;;;;;;;;;;;;;;;4902442;29;20010;-60
2022/07/21 03:51:44;;;;;;;;;;;;;;;;;;4881546;29;19976;-61
2022/07/21 03:54:12;;;;;;;;;;;;;;;;;;4911301;29;19934;-60
2022/07/21 03:56:42;;;;;;;;;;;;;;;;;;4895410;29;19923;-60
2022/07/21 03:59:07;;;;;;;;;;;;;;;;;;4910446;29;20386;-60
2022/07/21 04:01:36;;;;;;;;;;;;;;;;;;4896743;29;19919;-60
2022/07/21 04:04:01;;;;;;;;;;;;;;;;;;4898502;29;19962;-60
2022/07/21 04:06:26;;;;;;;;;;;;;;;;;;4896538;29;20394;-60
2022/07/21 04:08:54;;;;;;;;;;;;;;;;;;4896087;29;20054;-61
2022/07/21 04:11:22;;;;;;;;;;;;;;;;;;4896463;29;19923;-60
2022/07/21 04:13:49;;;;;;;;;;;;;;;;;;4896388;29;19923;-59
2022/07/21 04:16:18;;;;;;;;;;;;;;;;;;4895938;29;19977;-60
2022/07/21 04:18:43;;;;;;;;;;;;;;;;;;4898019;29;20417;-60
2022/07/21 04:21:09;;;;;;;;;;;;;;;;;;4899876;29;19924;-60
2022/07/21 04:23:34;;;;;;;;;;;;;;;;;;4895221;29;20355;-60
2022/07/21 04:26:00;;;;;;;;;;;;;;;;;;4893000;29;19929;-61
2022/07/21 04:28:29;;;;;;;;;;;;;;;;;;4897616;29;20423;-60
2022/07/21 04:30:57;;;;;;;;;;;;;;;;;;4897274;29;20367;-60
2022/07/21 04:33:22;;;;;;;;;;;;;;;;;;4896270;29;19931;-62
2022/07/21 04:35:48;;;;;;;;;;;;;;;;;;4895995;29;19923;-60
2022/07/21 04:38:14;;;;;;;;;;;;;;;;;;4895164;29;19931;-60
2022/07/21 04:40:41;;;;;;;;;;;;;;;;;;4896145;29;20276;-61
2022/07/21 04:43:11;;;;;;;;;;;;;;;;;;4896761;29;20005;-61
2022/07/21 04:45:37;;;;;;;;;;;;;;;;;;4894738;29;19950;-59
2022/07/21 04:48:05;;;;;;;;;;;;;;;;;;4886479;29;19923;-59
2022/07/21 04:50:33;;;;;;;;;;;;;;;;;;4896045;29;19923;-59
2022/07/21 04:53:01;;;;;;;;;;;;;;;;;;4893412;29;19927;-60
2022/07/21 04:55:28;;;;;;;;;;;;;;;;;;4892999;29;20786;-59
2022/07/21 04:57:58;;;;;;;;;;;;;;;;;;4892405;29;20517;-60
2022/07/21 05:00:26;;;;;;;;;;;;;;;;;;4894805;29;19922;-59
2022/07/21 05:02:51;;;;;;;;;;;;;;;;;;4897294;29;19919;-59
2022/07/21 05:05:17;;;;;;;;;;;;;;;;;;4896146;29;20279;-59
2022/07/21 05:07:42;;;;;;;;;;;;;;;;;;4895742;29;19918;-59
2022/07/21 05:10:10;;;;;;;;;;;;;;;;;;4896399;29;20549;-59
2022/07/21 05:12:35;;;;;;;;;;;;;;;;;;4893613;29;20302;-59
2022/07/21 05:15:01;;;;;;;;;;;;;;;;;;4896641;29;19959;-59
2022/07/21 05:17:26;;;;;;;;;;;;;;;;;;4898003;29;19946;-59
2022/07/21 05:19:54;;;;;;;;;;;;;;;;;;4893603;29;20026;-60
2022/07/21 05:22:19;;;;;;;;;;;;;;;;;;4883289;29;19975;-59
2022/07/21 05:24:50;;;;;;;;;;;;;;;;;;4893931;29;20014;-59
2022/07/21 05:27:16;;;;;;;;;;;;;;;;;;4895335;29;19927;-59
2022/07/21 05:29:44;;;;;;;;;;;;;;;;;;4895694;29;20765;-59
2022/07/21 05:32:10;;;;;;;;;;;;;;;;;;4898171;29;19918;-59
2022/07/21 05:34:35;;;;;;;;;;;;;;;;;;4899917;29;20415;-59
2022/07/21 05:37:03;;;;;;;;;;;;;;;;;;4898302;29;19930;-59
2022/07/21 05:39:29;;;;;;;;;;;;;;;;;;4899203;29;19919;-59
2022/07/21 05:41:54;;;;;;;;;;;;;;;;;;4899671;29;20082;-59
2022/07/21 05:44:19;;;;;;;;;;;;;;;;;;4885915;29;19923;-59
2022/07/21 05:46:44;;;;;;;;;;;;;;;;;;4898436;29;19923;-59
2022/07/21 05:49:12;;;;;;;;;;;;;;;;;;4898667;29;20002;-59
2022/07/21 05:51:39;;;;;;;;;;;;;;;;;;4897685;29;19924;-58
2022/07/21 05:54:05;;;;;;;;;;;;;;;;;;4898068;29;19934;-59
2022/07/21 05:56:31;;;;;;;;;;;;;;;;;;4898511;29;20546;-59
2022/07/21 05:58:56;;;;;;;;;;;;;;;;;;4899566;29;19926;-59
2022/07/21 06:01:23;;;;;;;;;;;;;;;;;;4898764;29;19923;-59
2022/07/21 06:03:53;;;;;;;;;;;;;;;;;;4900280;29;20041;-60
2022/07/21 06:06:19;;;;;;;;;;;;;;;;;;4897080;29;19938;-58
2022/07/21 06:08:47;;;;;;;;;;;;;;;;;;4899412;29;19959;-58
2022/07/21 06:11:12;;;;;;;;;;;;;;;;;;4886344;29;20003;-59
2022/07/21 06:13:38;;;;;;;;;;;;;;;;;;4899254;29;19927;-58
2022/07/21 06:16:05;;;;;;;;;;;;;;;;;;4900063;29;19923;-59
2022/07/21 06:18:31;;;;;;;;;;;;;;;;;;4897724;29;19923;-59
2022/07/21 06:20:56;;;;;;;;;;;;;;;;;;4898403;29;19919;-61
2022/07/21 06:23:21;;;;;;;;;;;;;;;;;;4897332;29;21907;-59
2022/07/21 06:25:47;;;;;;;;;;;;;;;;;;4897557;29;19918;-59
2022/07/21 06:28:12;;;;;;;;;;;;;;;;;;4899687;29;19934;-58
2022/07/21 06:30:38;;;;;;;;;;;;;;;;;;4897279;29;19927;-59
2022/07/21 06:33:05;;;;;;;;;;;;;;;;;;4897114;29;19943;-59
2022/07/21 06:35:31;;;;;;;;;;;;;;;;;;4874698;29;20071;-59
2022/07/21 06:37:57;;;;;;;;;;;;;;;;;;4898343;29;19957;-59
2022/07/21 06:40:22;;;;;;;;;;;;;;;;;;4910602;29;20053;-59
2022/07/21 06:42:50;;;;;;;;;;;;;;;;;;4897270;29;19929;-59
2022/07/21 06:45:15;;;;;;;;;;;;;;;;;;4895269;29;19930;-60
2022/07/21 06:47:43;;;;;;;;;;;;;;;;;;4898120;29;19919;-58
2022/07/21 06:50:11;;;;;;;;;;;;;;;;;;4899095;29;19929;-59
2022/07/21 06:52:36;;;;;;;;;;;;;;;;;;4898605;29;19931;-59
2022/07/21 06:55:02;;;;;;;;;;;;;;;;;;4898535;29;19923;-58
2022/07/21 06:57:28;;;;;;;;;;;;;;;;;;4898258;29;19942;-59
2022/07/21 06:59:55;;;;;;;;;;;;;;;;;;4897527;29;19982;-58
2022/07/21 07:02:20;;;;;;;;;;;;;;;;;;4896032;29;20002;-59
2022/07/21 07:04:46;;;;;;;;;;;;;;;;;;4869943;29;19926;-58
2022/07/21 07:07:11;;;;;;;;;;;;;;;;;;4898578;29;19930;-58
2022/07/21 07:09:38;;;;;;;;;;;;;;;;;;4894295;29;20026;-58
2022/07/21 07:12:08;;;;;;;;;;;;;;;;;;4898744;29;19969;-58
2022/07/21 07:14:36;;;;;;;;;;;;;;;;;;4899582;29;19955;-58
2022/07/21 07:17:01;;;;;;;;;;;;;;;;;;4897222;29;19919;-58
2022/07/21 07:19:27;;;;;;;;;;;;;;;;;;4897514;29;19930;-58
2022/07/21 07:21:54;;;;;;;;;;;;;;;;;;4898279;29;19935;-58
2022/07/21 07:24:22;;;;;;;;;;;;;;;;;;4895783;29;19961;-58
2022/07/21 07:26:52;;;;;;;;;;;;;;;;;;4898741;29;20026;-57
2022/07/21 07:29:20;;;;;;;;;;;;;;;;;;4898129;29;19923;-58
2022/07/21 07:31:47;;;;;;;;;;;;;;;;;;4896075;29;20002;-58
2022/07/21 07:34:15;;;;;;;;;;;;;;;;;;4898980;29;19923;-59
2022/07/21 07:36:43;;;;;;;;;;;;;;;;;;4897993;29;20446;-59
2022/07/21 07:39:08;;;;;;;;;;;;;;;;;;4897493;29;20330;-58
2022/07/21 07:41:33;;;;;;;;;;;;;;;;;;4896901;29;19958;-58
2022/07/21 07:43:59;;;;;;;;;;;;;;;;;;4894524;29;20484;-59
2022/07/21 07:46:25;;;;;;;;;;;;;;;;;;4898909;29;20037;-59
2022/07/21 07:48:52;;;;;;;;;;;;;;;;;;4896650;29;20053;-58
2022/07/21 07:51:18;;;;;;;;;;;;;;;;;;4897463;29;19922;-58
2022/07/21 07:53:43;;;;;;;;;;;;;;;;;;4900014;29;19927;-58
2022/07/21 07:56:08;;;;;;;;;;;;;;;;;;4896035;29;20513;-60
2022/07/21 07:58:37;;;;;;;;;;;;;;;;;;4893832;29;20656;-60
2022/07/21 08:01:02;;;;;;;;;;;;;;;;;;4879080;29;20224;-58
2022/07/21 08:03:28;;;;;;;;;;;;;;;;;;4896098;29;21752;-59
2022/07/21 08:05:59;;;;;;;;;;;;;;;;;;4896016;29;19927;-59
2022/07/21 08:08:27;;;;;;;;;;;;;;;;;;4895472;29;20516;-59
2022/07/21 08:10:52;;;;;;;;;;;;;;;;;;4881198;29;19919;-59
2022/07/21 08:13:18;;;;;;;;;;;;;;;;;;4894244;29;19941;-60
2022/07/21 08:15:46;;;;;;;;;;;;;;;;;;4892934;29;19919;-60
2022/07/21 08:18:11;;;;;;;;;;;;;;;;;;4878714;29;19934;-59
2022/07/21 08:20:36;;;;;;;;;;;;;;;;;;4893658;29;19919;-60
2022/07/21 08:23:02;;;;;;;;;;;;;;;;;;4895437;29;19942;-59
2022/07/21 08:25:28;;;;;;;;;;;;;;;;;;4898050;29;20063;-59
2022/07/21 08:27:53;;;;;;;;;;;;;;;;;;4897402;29;19923;-60
2022/07/21 08:30:18;;;;;;;;;;;;;;;;;;4882303;29;19919;-60
2022/07/21 08:32:44;;;;;;;;;;;;;;;;;;4888010;29;19941;-59
2022/07/21 08:35:09;;;;;;;;;;;;;;;;;;4895230;29;19923;-60
2022/07/21 08:37:40;;;;;;;;;;;;;;;;;;4895668;29;20394;-61
2022/07/21 08:40:05;;;;;;;;;;;;;;;;;;4897383;29;19934;-60
2022/07/21 08:42:31;;;;;;;;;;;;;;;;;;4883204;29;21008;-60
2022/07/21 08:44:57;;;;;;;;;;;;;;;;;;4897925;29;19930;-60
2022/07/21 08:47:25;;;;;;;;;;;;;;;;;;4894095;29;19919;-61
2022/07/21 08:49:52;;;;;;;;;;;;;;;;;;4878930;29;20037;-61
2022/07/21 08:52:18;;;;;;;;;;;;;;;;;;4898034;29;19974;-59
2022/07/21 08:54:46;;;;;;;;;;;;;;;;;;4895442;29;20354;-61
2022/07/21 08:57:13;;;;;;;;;;;;;;;;;;4896274;29;19962;-60
2022/07/21 08:59:39;;;;;;;;;;;;;;;;;;4895119;29;20057;-60
2022/07/21 09:02:04;;;;;;;;;;;;;;;;;;4896317;29;19923;-60
2022/07/21 09:04:29;;;;;;;;;;;;;;;;;;4884499;29;20030;-60
2022/07/21 09:06:54;;;;;;;;;;;;;;;;;;4898681;29;20023;-60
2022/07/21 09:09:25;;;;;;;;;;;;;;;;;;4901608;29;20807;-60
2022/07/21 09:11:50;;;;;;;;;;;;;;;;;;4898212;29;20438;-61
2022/07/21 09:14:18;;;;;;;;;;;;;;;;;;4898891;29;20045;-61
2022/07/21 09:16:43;;;;;;;;;;;;;;;;;;4899036;29;19923;-61
2022/07/21 09:19:11;;;;;;;;;;;;;;;;;;4899204;29;19923;-60
2022/07/21 09:21:36;;;;;;;;;;;;;;;;;;4899777;29;19923;-60
2022/07/21 09:24:01;;;;;;;;;;;;;;;;;;4898205;29;19930;-59
2022/07/21 09:26:26;;;;;;;;;;;;;;;;;;4897232;29;20391;-61
2022/07/21 09:28:55;;;;;;;;;;;;;;;;;;4900951;29;19967;-60
2022/07/21 09:31:23;;;;;;;;;;;;;;;;;;4897539;29;20849;-61
2022/07/21 09:33:48;;;;;;;;;;;;;;;;;;4899334;29;20375;-61
2022/07/21 09:36:19;;;;;;;;;;;;;;;;;;4898796;29;20035;-60
2022/07/21 09:38:44;;;;;;;;;;;;;;;;;;4896752;29;19950;-61
2022/07/21 09:41:10;;;;;;;;;;;;;;;;;;4886895;29;20468;-60
2022/07/21 09:43:41;;;;;;;;;;;;;;;;;;4899688;29;19933;-61
2022/07/21 09:46:08;;;;;;;;;;;;;;;;;;4898810;29;19923;-61
2022/07/21 09:48:36;;;;;;;;;;;;;;;;;;4898416;29;19934;-62
2022/07/21 09:51:01;;;;;;;;;;;;;;;;;;4899498;29;19919;-65
2022/07/21 09:53:32;;;;;;;;;;;;;;;;;;4897222;29;20291;-63
2022/07/21 09:55:59;;;;;;;;;;;;;;;;;;4884286;29;19923;-62
2022/07/21 09:58:26;;;;;;;;;;;;;;;;;;4899932;29;19974;-64
2022/07/21 10:00:54;;;;;;;;;;;;;;;;;;4883087;29;20470;-62
2022/07/21 10:03:19;;;;;;;;;;;;;;;;;;4897643;29;19930;-62
2022/07/21 10:05:45;;;;;;;;;;;;;;;;;;4900414;29;19927;-63
2022/07/21 10:08:10;;;;;;;;;;;;;;;;;;4897697;29;19927;-62
2022/07/21 10:10:38;;;;;;;;;;;;;;;;;;4913153;29;19934;-63
2022/07/21 10:13:06;;;;;;;;;;;;;;;;;;4896623;29;19955;-63
2022/07/21 10:15:31;;;;;;;;;;;;;;;;;;4898869;29;20001;-62
2022/07/21 10:17:57;;;;;;;;;;;;;;;;;;4895967;29;19930;-62
2022/07/21 10:20:22;;;;;;;;;;;;;;;;;;4899409;29;20037;-63
2022/07/21 10:22:48;;;;;;;;;;;;;;;;;;4898088;29;19923;-61
2022/07/21 10:25:15;;;;;;;;;;;;;;;;;;4897934;29;19923;-62
2022/07/21 10:27:40;;;;;;;;;;;;;;;;;;4884023;29;19967;-63
2022/07/21 10:30:06;;;;;;;;;;;;;;;;;;4895179;29;19927;-62
2022/07/21 10:32:31;;;;;;;;;;;;;;;;;;4897545;29;20036;-60
2022/07/21 10:34:56;;;;;;;;;;;;;;;;;;4891314;29;19926;-61
2022/07/21 10:37:22;;;;;;;;;;;;;;;;;;4896663;29;19923;-63
2022/07/21 10:39:48;;;;;;;;;;;;;;;;;;4900051;29;20450;-64
2022/07/21 10:42:13;;;;;;;;;;;;;;;;;;4897655;29;19978;-64
2022/07/21 10:44:38;;;;;;;;;;;;;;;;;;4896641;29;19923;-63
2022/07/21 10:47:04;;;;;;;;;;;;;;;;;;4899199;29;20748;-63
2022/07/21 10:49:29;;;;;;;;;;;;;;;;;;4897438;29;19934;-63
2022/07/21 10:51:55;;;;;;;;;;;;;;;;;;4898169;29;19923;-63
2022/07/21 10:54:20;;;;;;;;;;;;;;;;;;4884167;29;19978;-62
2022/07/21 10:56:48;;;;;;;;;;;;;;;;;;4880048;29;19961;-64
2022/07/21 10:59:13;;;;;;;;;;;;;;;;;;4896810;29;20929;-63
2022/07/21 11:01:39;;;;;;;;;;;;;;;;;;4896993;29;19929;-60
2022/07/21 11:04:05;;;;;;;;;;;;;;;;;;4898014;29;19971;-63
2022/07/21 11:06:30;;;;;;;;;;;;;;;;;;4881456;29;20483;-63
2022/07/21 11:08:58;;;;;;;;;;;;;;;;;;4900449;29;19934;-62
2022/07/21 11:11:26;;;;;;;;;;;;;;;;;;4896980;29;19923;-63
2022/07/21 11:14:09;;;;;;;;;;;;;;;;;;4905385;29;19931;-63
2022/07/21 11:16:34;;;;;;;;;;;;;;;;;;4905088;29;20675;-63
2022/07/21 11:19:03;;;;;;;;;;;;;;;;;;4890070;29;19922;-62
2022/07/21 11:21:31;;;;;;;;;;;;;;;;;;4903399;29;20694;-62
2022/07/21 11:23:59;;;;;;;;;;;;;;;;;;4892131;29;19929;-64
2022/07/21 11:26:26;;;;;;;;;;;;;;;;;;4905681;29;21692;-63
2022/07/21 11:28:52;;;;;;;;;;;;;;;;;;4887334;29;19919;-62
2022/07/21 11:31:18;;;;;;;;;;;;;;;;;;4904498;29;19930;-62
2022/07/21 11:33:43;;;;;;;;;;;;;;;;;;4889765;29;19923;-63
2022/07/21 11:36:13;;;;;;;;;;;;;;;;;;4906010;29;19927;-63
2022/07/21 11:38:41;;;;;;;;;;;;;;;;;;4905423;29;19926;-62
2022/07/21 11:41:06;;;;;;;;;;;;;;;;;;4873028;29;22070;-62
2022/07/21 11:43:31;;;;;;;;;;;;;;;;;;4888676;29;19951;-63
2022/07/21 11:45:57;;;;;;;;;;;;;;;;;;4898091;29;21328;-61
2022/07/21 11:48:22;;;;;;;;;;;;;;;;;;4895419;29;19923;-63
2022/07/21 11:50:47;;;;;;;;;;;;;;;;;;4896457;29;20384;-63
2022/07/21 11:53:13;;;;;;;;;;;;;;;;;;4895028;29;19986;-62
2022/07/21 11:55:38;;;;;;;;;;;;;;;;;;4898535;29;19975;-63
2022/07/21 11:58:04;;;;;;;;;;;;;;;;;;4897327;29;19927;-64
2022/07/21 12:00:32;;;;;;;;;;;;;;;;;;4895869;29;19923;-65
2022/07/21 12:02:58;;;;;;;;;;;;;;;;;;4871039;29;19930;-64
2022/07/21 12:05:28;;;;;;;;;;;;;;;;;;4883748;29;22154;-63
2022/07/21 12:07:56;;;;;;;;;;;;;;;;;;4880675;29;20009;-63
2022/07/21 12:10:21;;;;;;;;;;;;;;;;;;4897069;29;19919;-64
2022/07/21 12:12:50;;;;;;;;;;;;;;;;;;4894112;29;19934;-63
2022/07/21 12:15:16;;;;;;;;;;;;;;;;;;4895230;29;20005;-64
2022/07/21 12:17:44;;;;;;;;;;;;;;;;;;4898669;29;19918;-63
2022/07/21 12:20:10;;;;;;;;;;;;;;;;;;4896179;29;19919;-63
2022/07/21 12:22:36;;;;;;;;;;;;;;;;;;4897376;29;19934;-62
2022/07/21 12:25:01;;;;;;;;;;;;;;;;;;4894306;29;19930;-64
2022/07/21 12:27:27;;;;;;;;;;;;;;;;;;4894213;29;19998;-65
2022/07/21 12:29:52;;;;;;;;;;;;;;;;;;4872024;29;20155;-66
2022/07/21 12:32:20;;;;;;;;;;;;;;;;;;4899114;29;19974;-65
2022/07/21 12:34:45;;;;;;;;;;;;;;;;;;4897648;29;20310;-66
2022/07/21 12:37:10;;;;;;;;;;;;;;;;;;4896065;29;20893;-65
2022/07/21 12:39:57;;;;;;;;;;;;;;;;;;4898836;29;19923;-66
2022/07/21 12:42:25;;;;;;;;;;;;;;;;;;4895800;29;19918;-64
2022/07/21 12:44:52;;;;;;;;;;;;;;;;;;4898623;29;19927;-66
2022/07/21 12:47:18;;;;;;;;;;;;;;;;;;4896249;29;19930;-65
2022/07/21 12:49:45;;;;;;;;;;;;;;;;;;4883519;29;20008;-66
2022/07/21 12:52:13;;;;;;;;;;;;;;;;;;4896903;29;19927;-67
2022/07/21 12:54:38;;;;;;;;;;;;;;;;;;4898683;29;20629;-67
2022/07/21 12:57:04;;;;;;;;;;;;;;;;;;4896417;29;19923;-68
2022/07/21 12:59:29;;;;;;;;;;;;;;;;;;4895987;29;21966;-67
2022/07/21 13:01:54;;;;;;;;;;;;;;;;;;4899996;29;19930;-68
2022/07/21 13:04:20;;;;;;;;;;;;;;;;;;4897845;29;21884;-66
2022/07/21 13:06:45;;;;;;;;;;;;;;;;;;4892057;29;19942;-68
2022/07/21 13:09:13;;;;;;;;;;;;;;;;;;4890897;29;19923;-68
2022/07/21 13:11:38;;;;;;;;;;;;;;;;;;4877570;29;20556;-68
2022/07/21 13:14:04;;;;;;;;;;;;;;;;;;4893547;29;19931;-67
2022/07/21 13:16:30;;;;;;;;;;;;;;;;;;4879241;29;19920;-66
2022/07/21 13:18:57;;;;;;;;;;;;;;;;;;4896445;29;20488;-67
2022/07/21 13:21:24;;;;;;;;;;;;;;;;;;4895207;29;19924;-67
2022/07/21 13:23:50;;;;;;;;;;;;;;;;;;4894766;29;19973;-67
2022/07/21 13:26:15;;;;;;;;;;;;;;;;;;4878561;29;19955;-67
2022/07/21 13:28:40;;;;;;;;;;;;;;;;;;4899491;29;19967;-67
2022/07/21 13:31:06;;;;;;;;;;;;;;;;;;4877879;29;20747;-67
2022/07/21 13:33:34;;;;;;;;;;;;;;;;;;4895423;29;19927;-66
2022/07/21 13:36:01;;;;;;;;;;;;;;;;;;4896580;29;19926;-67
2022/07/21 13:38:27;;;;;;;;;;;;;;;;;;4893919;29;20022;-68
2022/07/21 13:40:52;;;;;;;;;;;;;;;;;;4895703;29;19929;-67
2022/07/21 13:43:18;;;;;;;;;;;;;;;;;;4896036;29;20471;-66
2022/07/21 13:45:43;;;;;;;;;;;;;;;;;;4894214;29;19937;-66
2022/07/21 13:48:09;;;;;;;;;;;;;;;;;;4886990;29;19919;-68
2022/07/21 13:50:34;;;;;;;;;;;;;;;;;;4896830;29;20355;-66
2022/07/21 13:53:02;;;;;;;;;;;;;;;;;;4898920;29;19938;-67
2022/07/21 13:55:30;;;;;;;;;;;;;;;;;;4886074;29;20561;-68
2022/07/21 13:57:57;;;;;;;;;;;;;;;;;;4882962;29;20002;-69
2022/07/21 14:00:28;;;;;;;;;;;;;;;;;;4896240;29;19923;-67
2022/07/21 14:02:53;;;;;;;;;;;;;;;;;;4896227;29;19947;-67
2022/07/21 14:05:19;;;;;;;;;;;;;;;;;;4897336;29;19923;-67
2022/07/21 14:07:45;;;;;;;;;;;;;;;;;;4898175;29;19931;-66
2022/07/21 14:10:10;;;;;;;;;;;;;;;;;;4873984;29;19923;-67
2022/07/21 14:12:38;;;;;;;;;;;;;;;;;;4899076;29;19983;-68
2022/07/21 14:15:06;;;;;;;;;;;;;;;;;;4882337;29;19927;-66
2022/07/21 14:17:32;;;;;;;;;;;;;;;;;;4875206;29;19930;-66
2022/07/21 14:19:59;;;;;;;;;;;;;;;;;;4900448;29;20017;-66
2022/07/21 14:22:27;;;;;;;;;;;;;;;;;;4897275;29;20367;-67
2022/07/21 14:27:41;;;;;;;;;;;;;;;;;;4898757;29;19927;-67
2022/07/21 14:30:06;;;;;;;;;;;;;;;;;;4897372;29;19998;-69
2022/07/21 14:32:32;;;;;;;;;;;;;;;;;;4899368;29;19923;-68
2022/07/21 14:34:58;;;;;;;;;;;;;;;;;;4896127;29;19969;-67
2022/07/21 14:37:24;;;;;;;;;;;;;;;;;;4898194;29;19923;-69
2022/07/21 14:39:51;;;;;;;;;;;;;;;;;;4883653;29;19930;-66
2022/07/21 14:42:17;;;;;;;;;;;;;;;;;;4898091;29;19919;-66
2022/07/21 14:44:47;;;;;;;;;;;;;;;;;;4900890;29;20590;-64
2022/07/21 14:47:15;;;;;;;;;;;;;;;;;;4899160;29;19958;-66
2022/07/21 14:49:41;;;;;;;;;;;;;;;;;;4898794;29;20021;-64
2022/07/21 14:52:09;;;;;;;;;;;;;;;;;;4888715;29;19923;-67
2022/07/21 14:54:35;;;;;;;;;;;;;;;;;;4898613;29;19945;-64
2022/07/21 14:57:01;;;;;;;;;;;;;;;;;;4895069;29;20969;-66
2022/07/21 14:59:26;;;;;;;;;;;;;;;;;;4895292;29;19919;-66
2022/07/21 15:01:52;;;;;;;;;;;;;;;;;;4896110;29;19930;-66
2022/07/21 15:04:19;;;;;;;;;;;;;;;;;;4900844;29;19923;-65
2022/07/21 15:06:47;;;;;;;;;;;;;;;;;;4879651;29;19986;-66
2022/07/21 15:09:15;;;;;;;;;;;;;;;;;;4888016;29;19922;-67
2022/07/21 15:11:45;;;;;;;;;;;;;;;;;;4895113;29;19919;-65
2022/07/21 15:14:10;;;;;;;;;;;;;;;;;;4902386;29;19927;-66
2022/07/21 15:16:36;;;;;;;;;;;;;;;;;;4884950;29;19978;-66
2022/07/21 15:19:06;;;;;;;;;;;;;;;;;;4897340;29;19946;-66
2022/07/21 15:21:31;;;;;;;;;;;;;;;;;;4898151;29;20007;-67
2022/07/21 15:23:56;;;;;;;;;;;;;;;;;;4879609;29;19971;-66
2022/07/21 15:26:22;;;;;;;;;;;;;;;;;;4898080;29;19923;-66
2022/07/21 15:28:47;;;;;;;;;;;;;;;;;;4897059;29;19931;-66
2022/07/21 15:31:13;;;;;;;;;;;;;;;;;;4900628;29;20050;-67
2022/07/21 15:33:40;;;;;;;;;;;;;;;;;;4899475;29;20023;-66
2022/07/21 15:36:06;;;;;;;;;;;;;;;;;;4895623;29;19974;-67
2022/07/21 15:38:32;;;;;;;;;;;;;;;;;;4897931;29;19927;-66
2022/07/21 15:41:02;;;;;;;;;;;;;;;;;;4895258;29;20009;-68
2022/07/21 15:43:30;;;;;;;;;;;;;;;;;;4896855;29;19945;-66
2022/07/21 15:45:55;;;;;;;;;;;;;;;;;;4883729;29;20371;-67
2022/07/21 15:48:22;;;;;;;;;;;;;;;;;;4896976;29;20431;-67
2022/07/21 15:50:50;;;;;;;;;;;;;;;;;;4897144;29;19926;-66
2022/07/21 15:53:20;;;;;;;;;;;;;;;;;;4897551;29;20056;-67
2022/07/21 15:55:48;;;;;;;;;;;;;;;;;;4895728;29;19919;-65
2022/07/21 15:58:16;;;;;;;;;;;;;;;;;;4897362;29;20037;-65
2022/07/21 16:00:41;;;;;;;;;;;;;;;;;;4895962;29;20269;-66
2022/07/21 16:03:07;;;;;;;;;;;;;;;;;;4898105;29;20283;-67
2022/07/21 16:05:35;;;;;;;;;;;;;;;;;;4894866;29;19937;-66
2022/07/21 16:08:01;;;;;;;;;;;;;;;;;;4879262;29;20054;-67
2022/07/21 16:10:26;;;;;;;;;;;;;;;;;;4894262;29;20034;-66
2022/07/21 16:12:54;;;;;;;;;;;;;;;;;;4895489;29;19930;-68
2022/07/21 16:15:20;;;;;;;;;;;;;;;;;;4896267;29;19926;-68
2022/07/21 16:17:46;;;;;;;;;;;;;;;;;;4883519;29;19923;-67
2022/07/21 16:20:14;;;;;;;;;;;;;;;;;;4897139;29;19926;-66
2022/07/21 16:22:41;;;;;;;;;;;;;;;;;;4900447;29;19927;-65
2022/07/21 16:25:06;;;;;;;;;;;;;;;;;;4895854;28;19977;-66
2022/07/21 16:27:34;;;;;;;;;;;;;;;;;;4896465;29;20374;-65
2022/07/21 16:30:02;;;;;;;;;;;;;;;;;;4878645;29;19927;-66
2022/07/21 16:32:27;;;;;;;;;;;;;;;;;;4897156;29;20761;-67
2022/07/21 16:34:55;;;;;;;;;;;;;;;;;;4897615;29;19919;-65
2022/07/21 16:37:21;;;;;;;;;;;;;;;;;;4896179;29;19919;-67
2022/07/21 16:39:50;;;;;;;;;;;;;;;;;;4895035;29;19963;-66
2022/07/21 16:42:15;;;;;;;;;;;;;;;;;;4882767;29;20374;-64
2022/07/21 16:44:41;;;;;;;;;;;;;;;;;;4884160;29;19927;-66
2022/07/21 16:47:09;;;;;;;;;;;;;;;;;;4894951;29;19927;-65